Terminal Aerodrome Forecast
Issued by NWS

Home | Current Version | Previous Version | Text Only | Print | Product List | Glossary On
Versions: 1 2 3 4 5 6 7 8 9 10 11 12
938
FTUS45 KGGW 262325
TAFSDY
TAF
KSDY 262325Z 2700/2724 16012KT P6SM SCT200
     FM270500 16007KT P6SM SCT200 WS020/17040KT
     FM271200 16005KT P6SM SCT150
     FM272000 28011KT P6SM BKN110=

USA.gov is the U.S. government's official web portal to all federal, state and local government web resources and services.